Griddlers

Vá diretamente à ID do puzzle

Jogos e Brinquedos: Jogos: RPG: Dragon Quest

Selecione o puzzle por:
Resolvidos Question organizar por
Mostrar mais filtros >>>
puzzles por página
Página nº de 4
Resultado: 65 de 65
ID Descrição Autor Data Tamanho Pontos Popularidade Tempo Médio Resolvidos
126829 You May be a Dragonborn, But... rwkasten 19-08-2012 40x50x2 f-4 10.849 00:25:09
126828 You May be a Dragonborn, But... rwkasten 19-08-2012 40x50x2 f-4 24.282 00:18:12
126827 You May be a Dragonborn, But... rwkasten 19-08-2012 40x50x2 f-4 15.523 00:31:28
126826 You May be a Dragonborn, But... rwkasten 19-08-2012 40x50x2 f-4 1.604 75,44% 00:08:33
106540 DQM1 - BoxSlime bladewinters 10-03-2011 21x24x4 f 5.817 65,20% 00:10:57
106539 DQM1 - SlimeBorg bladewinters 10-03-2011 25x22x4 f 15.714 59,24% 00:17:19
106538 DQM2 - AngelSlime bladewinters 10-03-2011 35x19x6 f 21.205 69,18% 00:19:25
106537 DQM2 - TropicGel bladewinters 10-03-2011 30x29x6 f 29.741 74,08% 00:26:09
106536 DQM2 - MimeSlime bladewinters 10-03-2011 36x34x5 f 37.510 71,88% 00:40:40
106535 DQM2 - PearlGel bladewinters 10-03-2011 35x29x7 f 40.408 70,83% 00:23:20
106518 DQM1 - Slabbit bladewinters 09-03-2011 27x27x4 f 23.458 67,97% 00:19:30
106517 DQM1 - FangSlime bladewinters 09-03-2011 27x28x5 f 41.300 63,00% 00:24:59
106516 DQM1 - SpotKing bladewinters 09-03-2011 37x42x4 f 47.730 72,73% 00:36:12
106515 DQM1 - KingSlime bladewinters 09-03-2011 37x42x5 f 79.459 79,17% 00:28:40
106514 DQM1 - GoldSlime bladewinters 09-03-2011 45x47x5 f 182.677 77,08% 00:56:05
106495 DQM1 - SpotSlime bladewinters 08-03-2011 20x20x5 f 5.214 62,50% 00:08:32
106494 DQM1 - BubbleSlime bladewinters 08-03-2011 28x21x5 f 12.301 68,08% 00:12:22
106493 DQM1 - SlimeSnail bladewinters 08-03-2011 25x20x5 f 18.852 69,51% 00:17:48
106492 DQM1 - SlimeKnight bladewinters 08-03-2011 22x35x4 f 35.644 66,25% 00:41:00
106491 DQM1 - DrakSlime bladewinters 08-03-2011 35x25x5 f 36.541 57,14% 00:30:23
puzzles por página
Página nº de 4
Resultado: 65 de 65